Time;durP1;ratioP1;P1;durP2;ratioP2;P2;SDS_P1;SDS_P2;PMS_P1;PMS_P2;Temp;Humidity;BMP_temperature;BMP_pressure;BME280_temperature;BME280_humidity;BME280_pressure;Samples;Min_cycle;Max_cycle;Signal;HPM_P1;HPM_P2
2022/11/19 00:01:13;;;;;;;24.48;13.82;;;;;;;7.64;79.33;100672.09;5060785;28;20024;-92
2022/11/19 00:03:40;;;;;;;25.17;14.63;;;;;;;7.68;79.57;100688.66;5061013;28;20032;-92
2022/11/19 00:06:10;;;;;;;23.52;13.48;;;;;;;7.66;80.30;100686.09;5063933;28;20063;-92
2022/11/19 00:08:35;;;;;;;23.60;14.02;;;;;;;7.52;79.64;100663.75;5064115;28;20035;-92
2022/11/19 00:11:10;;;;;;;24.02;13.18;;;;;;;7.60;80.08;100691.56;5057590;28;20024;-91
2022/11/19 00:13:36;;;;;;;24.45;13.18;;;;;;;7.53;79.98;100686.50;5062334;28;20210;-91
2022/11/19 00:16:13;;;;;;;23.92;13.57;;;;;;;7.52;80.47;100692.69;5066429;28;20047;-92
2022/11/19 00:18:39;;;;;;;26.50;14.27;;;;;;;7.52;79.96;100697.94;5062869;28;20036;-91
2022/11/19 00:21:12;;;;;;;24.48;13.80;;;;;;;7.49;80.21;100687.50;5061234;28;20046;-91
2022/11/19 00:23:38;;;;;;;;;;;;;;;7.64;79.85;100701.03;5067648;28;20032;-91
2022/11/19 00:26:09;;;;;;;21.55;13.27;;;;;;;7.52;80.14;100701.44;5066147;28;20359;-92
2022/11/19 00:28:34;;;;;;;21.23;13.87;;;;;;;7.51;79.73;100698.88;5059853;28;20020;-91
2022/11/19 00:31:09;;;;;;;22.90;13.48;;;;;;;7.48;79.91;100696.31;5065115;28;20047;-91
2022/11/19 00:33:36;;;;;;;23.08;12.85;;;;;;;7.35;79.52;100696.66;5053221;28;20099;-91
2022/11/19 00:36:03;;;;;;;23.67;13.43;;;;;;;7.34;80.06;100705.47;5064131;28;20582;-92
2022/11/19 00:38:30;;;;;;;23.30;13.38;;;;;;;7.32;79.50;100703.78;5062756;28;21336;-91
2022/11/19 00:40:55;;;;;;;22.20;13.40;;;;;;;7.23;79.70;100693.50;5065231;28;20033;-92
2022/11/19 00:46:05;;;;;;;24.55;14.23;;;;;;;7.22;79.29;100710.19;5061145;28;20541;-91
2022/11/19 00:48:30;;;;;;;22.75;13.23;;;;;;;7.23;80.36;100712.81;5066386;28;20024;-91
2022/11/19 00:50:56;;;;;;;26.02;14.35;;;;;;;7.21;79.56;100716.38;5062792;28;20388;-91
2022/11/19 00:53:21;;;;;;;23.00;14.10;;;;;;;7.16;80.19;100712.09;5067373;28;20027;-91
2022/11/19 00:55:46;;;;;;;25.10;14.55;;;;;;;7.04;80.07;100709.84;5064525;28;20036;-91
2022/11/19 00:58:11;;;;;;;27.73;15.25;;;;;;;7.03;79.85;100717.75;5070471;28;20490;-91
2022/11/19 01:00:37;;;;;;;31.48;15.43;;;;;;;7.03;79.77;100721.22;5062927;28;20041;-91
2022/11/19 01:03:03;;;;;;;28.30;15.05;;;;;;;7.03;79.82;100717.75;5082835;28;20024;-92
2022/11/19 01:05:28;;;;;;;31.23;15.90;;;;;;;6.99;79.89;100713.47;5079727;28;20043;-91
2022/11/19 01:07:54;;;;;;;32.80;15.50;;;;;;;7.00;79.35;100729.22;5068830;28;20027;-90
2022/11/19 01:10:19;;;;;;;27.88;15.48;;;;;;;6.98;79.73;100724.91;5084097;28;20467;-91
2022/11/19 01:15:28;;;;;;;22.02;14.10;;;;;;;6.88;79.74;100730.41;5088713;28;20072;-91
2022/11/19 01:17:54;;;;;;;28.20;15.23;;;;;;;6.88;80.08;100735.66;5086223;28;20098;-92
2022/11/19 01:20:19;;;;;;;29.35;15.35;;;;;;;6.89;80.09;100737.38;5087636;28;20032;-91
2022/11/19 01:22:45;;;;;;;30.08;15.70;;;;;;;6.79;79.82;100721.91;5086334;28;20449;-91
2022/11/19 01:25:11;;;;;;;26.92;14.57;;;;;;;6.85;79.55;100742.75;5087896;28;20045;-90
2022/11/19 01:27:36;;;;;;;25.08;15.20;;;;;;;6.74;79.45;100742.19;5088994;28;20448;-90
2022/11/19 01:30:02;;;;;;;27.27;16.40;;;;;;;6.75;79.49;100742.13;5076382;28;20063;-91
2022/11/19 01:32:27;;;;;;;28.63;14.73;;;;;;;6.70;79.91;100745.78;5064187;28;20100;-91
2022/11/19 01:34:52;;;;;;;25.80;15.10;;;;;;;6.69;79.98;100752.81;5088834;28;20020;-91
2022/11/19 01:37:17;;;;;;;26.15;14.93;;;;;;;6.67;79.65;100757.25;5066516;28;20042;-91
2022/11/19 01:39:43;;;;;;;26.30;14.18;;;;;;;6.63;79.11;100751.19;5085343;28;20674;-91
2022/11/19 01:45:21;;;;;;;26.90;14.93;;;;;;;6.84;78.77;100757.66;5088075;28;20063;-91
2022/11/19 01:47:46;;;;;;;24.00;13.52;;;;;;;6.69;80.05;100760.69;5089466;28;20023;-92
2022/11/19 01:50:12;;;;;;;28.38;14.63;;;;;;;6.71;79.59;100760.63;5087050;28;20431;-91
2022/11/19 01:52:38;;;;;;;25.70;13.82;;;;;;;6.78;79.22;100767.47;5070647;28;20111;-91
2022/11/19 01:55:05;;;;;;;26.95;13.80;;;;;;;6.86;79.04;100774.25;5069127;28;20024;-91
2022/11/19 01:57:30;;;;;;;23.70;14.77;;;;;;;6.75;78.60;100767.53;5088937;28;20483;-91
2022/11/19 01:59:56;;;;;;;26.30;14.65;;;;;;;6.73;79.50;100772.84;5087499;28;20511;-91
2022/11/19 02:02:22;;;;;;;24.55;13.48;;;;;;;6.78;79.52;100781.47;5067280;28;20110;-92
2022/11/19 02:04:50;;;;;;;24.52;13.50;;;;;;;6.77;78.94;100771.00;5087931;28;20499;-91
2022/11/19 02:07:17;;;;;;;19.33;12.63;;;;;;;6.73;78.78;100774.63;5067704;28;20012;-91
2022/11/19 02:09:43;;;;;;;22.90;13.02;;;;;;;6.60;78.04;100772.28;5089132;28;20399;-91
2022/11/19 02:12:25;;;;;;;19.80;11.88;;;;;;;6.59;78.69;100774.97;5086238;28;20023;-91
2022/11/19 02:15:11;;;;;;;18.30;11.48;;;;;;;6.68;78.87;100789.63;5071269;28;20292;-91
2022/11/19 02:18:21;;;;;;;18.67;11.43;;;;;;;6.61;78.61;100784.50;5069116;28;20066;-92
2022/11/19 02:21:08;;;;;;;20.00;11.25;;;;;;;6.60;78.22;100793.28;5083372;28;20023;-90
2022/11/19 02:23:39;;;;;;;20.48;11.80;;;;;;;6.55;78.53;100797.81;5087859;28;20028;-91
2022/11/19 02:26:16;;;;;;;18.42;11.35;;;;;;;6.50;77.97;100799.69;5068385;28;20471;-91
2022/11/19 02:28:57;;;;;;;17.67;10.73;;;;;;;6.46;78.15;100781.41;5087958;28;20031;-91
2022/11/19 02:31:38;;;;;;;18.65;10.90;;;;;;;6.39;78.19;100788.59;5070013;28;20052;-91
2022/11/19 02:34:12;;;;;;;17.75;10.68;;;;;;;6.31;77.95;100795.78;5089983;28;20554;-90
2022/11/19 02:36:45;;;;;;;17.13;10.18;;;;;;;6.23;78.09;100784.56;5086412;28;20383;-90
2022/11/19 02:39:29;;;;;;;16.98;10.65;;;;;;;6.20;78.32;100785.53;5070418;28;20020;-90
2022/11/19 02:42:03;;;;;;;16.92;10.38;;;;;;;6.15;78.38;100779.50;5080870;28;20395;-90
2022/11/19 02:47:24;;;;;;;;;;;;;;;6.31;78.03;100801.88;5088534;28;20059;-91
2022/11/19 02:49:54;;;;;;;16.55;10.63;;;;;;;6.15;78.09;100797.88;5089507;28;20733;-91
2022/11/19 02:52:20;;;;;;;17.95;11.57;;;;;;;6.06;78.16;100788.47;5055909;28;20108;-90
2022/11/19 02:54:46;;;;;;;18.02;11.00;;;;;;;6.01;78.34;100792.91;5086630;28;20395;-91
2022/11/19 02:57:12;;;;;;;17.30;11.43;;;;;;;5.99;78.06;100799.97;5086260;28;20024;-90
2022/11/19 03:05:31;;;;;;;16.75;10.70;;;;;;;5.98;77.74;100811.38;5087681;28;20100;-90
2022/11/19 03:07:57;;;;;;;17.77;11.43;;;;;;;5.97;78.21;100821.88;5070077;28;20107;-90
2022/11/19 03:10:26;;;;;;;19.15;11.50;;;;;;;5.89;78.43;100803.66;5090066;28;20106;-90
2022/11/19 03:16:40;;;;;;;19.38;11.00;;;;;;;6.01;78.61;100813.06;5069464;28;20059;-90
2022/11/19 03:18:48;;;;;;;18.25;11.07;;;;;;;5.99;77.97;100820.13;5085329;28;20074;-90
2022/11/19 03:21:26;;;;;;;21.27;12.27;;;;;;;5.93;77.46;100817.63;5087423;28;20463;-91
2022/11/19 03:23:59;;;;;;;21.30;12.15;;;;;;;5.90;77.69;100826.38;5067993;28;20437;-90
2022/11/19 03:26:31;;;;;;;17.15;11.02;;;;;;;5.86;77.64;100825.56;5086816;28;20026;-90
2022/11/19 03:29:04;;;;;;;20.10;11.70;;;;;;;5.82;77.96;100817.81;5067346;28;20028;-90
2022/11/19 03:31:31;;;;;;;20.90;12.20;;;;;;;5.82;77.34;100825.66;5064775;28;20050;-90
2022/11/19 03:34:02;;;;;;;21.90;12.10;;;;;;;5.84;77.76;100824.75;5089458;28;20423;-88
2022/11/19 03:36:35;;;;;;;22.90;12.38;;;;;;;5.86;78.11;100832.59;5087340;28;20023;-91
2022/11/19 03:39:05;;;;;;;23.95;13.85;;;;;;;5.83;77.29;100830.91;5060972;28;20478;-89
2022/11/19 03:41:33;;;;;;;22.52;13.82;;;;;;;5.78;76.95;100830.13;5086114;28;20024;-90
2022/11/19 03:44:10;;;;;;;23.95;13.50;;;;;;;5.68;77.20;100825.09;5089580;28;20478;-90
2022/11/19 03:46:38;;;;;;;23.65;13.13;;;;;;;5.66;77.64;100821.66;5085456;28;20055;-89
2022/11/19 03:49:07;;;;;;;20.55;13.00;;;;;;;5.71;77.99;100831.16;5088068;28;20487;-90
2022/11/19 03:51:41;;;;;;;22.63;13.00;;;;;;;5.68;77.77;100827.72;5086645;28;20030;-90
2022/11/19 03:54:07;;;;;;;20.67;12.63;;;;;;;5.68;77.30;100836.44;5071413;28;20030;-90
2022/11/19 03:56:37;;;;;;;22.35;13.10;;;;;;;5.68;77.69;100836.44;5081559;28;20085;-90
2022/11/19 03:59:04;;;;;;;23.00;12.68;;;;;;;5.73;77.92;100825.84;5069974;28;20031;-89
2022/11/19 04:01:30;;;;;;;25.58;13.88;;;;;;;5.81;76.69;100844.94;5083626;28;20024;-90
2022/11/19 04:06:39;;;;;;;20.98;12.63;;;;;;;5.79;76.71;100836.25;5086824;28;20116;-89
2022/11/19 04:09:04;;;;;;;20.55;12.13;;;;;;;5.74;76.88;100843.34;5086771;28;20078;-90
2022/11/19 04:11:30;;;;;;;26.75;13.63;;;;;;;5.63;77.54;100836.53;5084747;28;20463;-90
2022/11/19 04:13:55;;;;;;;26.48;13.90;;;;;;;5.65;76.52;100840.91;5086705;28;20028;-89
2022/11/19 04:16:20;;;;;;;25.65;13.82;;;;;;;5.66;76.65;100845.25;5063666;28;20035;-90
2022/11/19 04:18:45;;;;;;;27.73;14.18;;;;;;;5.55;76.94;100841.09;5069016;28;20016;-90
2022/11/19 04:21:11;;;;;;;24.75;13.07;;;;;;;5.53;76.12;100848.09;5083052;28;20035;-89
2022/11/19 04:23:36;;;;;;;26.02;14.15;;;;;;;5.41;76.37;100848.34;5085556;28;20180;-90
2022/11/19 04:26:01;;;;;;;22.27;13.45;;;;;;;5.33;76.75;100851.13;5085885;28;20403;-91
2022/11/19 04:28:27;;;;;;;25.88;14.77;;;;;;;5.31;77.57;100858.13;5086572;28;20032;-90
2022/11/19 04:30:52;;;;;;;27.13;15.15;;;;;;;5.36;77.72;100868.53;5085543;28;20494;-90
2022/11/19 04:33:17;;;;;;;27.17;14.35;;;;;;;5.42;76.84;100870.19;5082614;28;20036;-89
2022/11/19 04:35:44;;;;;;;24.70;13.93;;;;;;;5.42;77.52;100878.06;5067766;28;20035;-90
2022/11/19 04:38:09;;;;;;;25.20;14.18;;;;;;;5.33;77.46;100882.56;5066705;28;20268;-89
2022/11/19 04:40:34;;;;;;;25.30;14.77;;;;;;;5.25;77.47;100860.88;5085956;28;20042;-89
2022/11/19 04:43:00;;;;;;;26.65;13.57;;;;;;;5.26;77.41;100870.44;5086970;28;20050;-89
2022/11/19 04:45:25;;;;;;;25.30;13.95;;;;;;;5.23;77.68;100877.53;5067427;28;20039;-90
2022/11/19 04:47:50;;;;;;;27.02;13.48;;;;;;;5.19;77.15;100881.94;5066641;28;20035;-89
2022/11/19 04:50:15;;;;;;;26.70;14.88;;;;;;;5.21;78.09;100872.28;5082509;28;20064;-90
2022/11/19 04:52:41;;;;;;;28.83;15.07;;;;;;;5.24;78.39;100868.78;5070575;28;20028;-90
2022/11/19 04:55:06;;;;;;;29.83;15.00;;;;;;;5.26;78.07;100882.69;5080029;28;20105;-89
2022/11/19 04:57:31;;;;;;;27.30;14.82;;;;;;;5.27;78.24;100881.78;5070874;28;20024;-90
2022/11/19 04:59:57;;;;;;;24.90;14.90;;;;;;;5.30;78.42;100877.38;5081428;28;20489;-90
2022/11/19 05:02:22;;;;;;;27.30;14.30;;;;;;;5.36;77.80;100886.88;5084041;28;20035;-90
2022/11/19 05:04:47;;;;;;;28.65;15.55;;;;;;;5.28;77.59;100876.53;5066433;28;20032;-90
2022/11/19 05:07:13;;;;;;;26.80;15.10;;;;;;;5.26;77.59;100883.56;5089707;28;20342;-89
2022/11/19 05:09:38;;;;;;;28.67;15.02;;;;;;;5.25;76.85;100888.84;5081850;28;20511;-90
2022/11/19 05:12:03;;;;;;;28.38;15.40;;;;;;;5.22;77.12;100888.88;5077291;28;20024;-90
2022/11/19 05:14:29;;;;;;;30.92;16.25;;;;;;;5.23;76.88;100896.72;5065710;28;20471;-91
2022/11/19 05:16:54;;;;;;;30.83;16.73;;;;;;;5.15;76.82;100897.75;5066194;28;20024;-90
2022/11/19 05:19:19;;;;;;;26.08;14.88;;;;;;;5.12;77.11;100909.13;5084997;28;20039;-91
2022/11/19 05:21:45;;;;;;;30.48;17.02;;;;;;;5.07;76.40;100906.59;5066796;28;20504;-90
2022/11/19 05:24:10;;;;;;;34.00;17.88;;;;;;;5.10;76.95;100908.31;5087233;28;20027;-90
2022/11/19 05:26:35;;;;;;;28.33;15.48;;;;;;;5.14;77.27;100909.13;5088504;28;20039;-90
2022/11/19 05:29:00;;;;;;;29.73;15.70;;;;;;;5.18;77.63;100911.69;5088229;28;20536;-89
2022/11/19 05:31:26;;;;;;;29.23;15.55;;;;;;;5.21;77.50;100926.47;5068550;28;20030;-90
2022/11/19 05:33:51;;;;;;;28.85;16.30;;;;;;;5.12;76.11;100933.59;5085017;28;20059;-90
2022/11/19 05:36:16;;;;;;;28.60;15.55;;;;;;;5.02;76.55;100925.91;5079624;28;20046;-90
2022/11/19 05:38:41;;;;;;;29.80;16.58;;;;;;;5.03;76.33;100944.22;5086920;28;20387;-90
2022/11/19 05:41:07;;;;;;;32.05;17.05;;;;;;;5.05;76.77;100942.44;5088864;28;20093;-90
2022/11/19 05:43:32;;;;;;;30.08;16.40;;;;;;;5.00;76.59;100931.19;5067296;28;20035;-89
2022/11/19 05:46:01;;;;;;;30.83;16.58;;;;;;;5.03;77.07;100936.34;5066955;28;20505;-90
2022/11/19 05:48:27;;;;;;;33.15;17.88;;;;;;;5.05;76.43;100938.97;5066709;28;20020;-89
2022/11/19 05:50:53;;;;;;;30.70;17.33;;;;;;;4.97;76.48;100920.75;5068531;28;20039;-90
2022/11/19 05:53:18;;;;;;;29.25;16.30;;;;;;;4.95;76.29;100921.66;5083370;28;20202;-90
2022/11/19 05:55:43;;;;;;;30.77;16.63;;;;;;;4.81;76.90;100924.50;5084659;28;20035;-90
2022/11/19 05:58:09;;;;;;;29.35;15.63;;;;;;;4.78;75.85;100929.78;5081600;28;20051;-90
2022/11/19 06:00:34;;;;;;;32.08;16.88;;;;;;;4.80;75.43;100938.47;5090831;28;20031;-90
2022/11/19 06:02:59;;;;;;;30.48;17.70;;;;;;;4.75;75.92;100935.03;5085291;28;20380;-90
2022/11/19 06:05:24;;;;;;;30.85;16.63;;;;;;;4.73;75.83;100936.84;5084762;28;20488;-91
2022/11/19 06:07:50;;;;;;;32.28;17.63;;;;;;;4.75;76.26;100943.75;5089833;28;20023;-90
2022/11/19 06:10:15;;;;;;;29.08;16.98;;;;;;;4.76;75.83;100955.13;5072805;28;20379;-90
2022/11/19 06:12:42;;;;;;;32.78;18.25;;;;;;;4.74;75.84;100963.00;5073889;28;20152;-90
2022/11/19 06:15:08;;;;;;;33.65;18.65;;;;;;;4.69;75.72;100956.97;5068095;28;20463;-90
2022/11/19 06:17:33;;;;;;;32.85;18.77;;;;;;;4.68;75.65;100957.84;5092521;28;20024;-90
2022/11/19 06:19:59;;;;;;;37.15;19.80;;;;;;;4.62;75.00;100957.94;5068290;28;20035;-90
2022/11/19 06:22:24;;;;;;;33.92;18.80;;;;;;;4.57;75.46;100965.88;5071525;28;20490;-90
2022/11/19 06:24:49;;;;;;;32.42;17.65;;;;;;;4.59;76.07;100969.31;5090439;28;20091;-89
2022/11/19 06:27:15;;;;;;;34.53;18.33;;;;;;;4.63;75.73;100982.38;5090717;28;20016;-90
2022/11/19 06:29:40;;;;;;;36.72;20.40;;;;;;;4.65;75.82;100970.13;5071629;28;20078;-90
2022/11/19 06:32:05;;;;;;;35.50;19.42;;;;;;;4.71;75.28;100985.72;5086560;28;20028;-90
2022/11/19 06:34:30;;;;;;;36.83;20.10;;;;;;;4.72;75.96;100990.09;5068712;28;20547;-90
2022/11/19 06:36:57;;;;;;;36.25;18.65;;;;;;;4.71;74.93;100998.81;5072726;28;20032;-90
2022/11/19 06:39:22;;;;;;;37.28;19.98;;;;;;;4.76;75.50;101015.38;5070993;28;20395;-91
2022/11/19 06:41:48;;;;;;;36.53;19.35;;;;;;;4.62;75.01;100981.50;5069652;28;20031;-91
2022/11/19 06:44:13;;;;;;;33.65;19.27;;;;;;;4.65;75.55;100998.91;5087689;28;20154;-90
2022/11/19 06:46:38;;;;;;;36.70;19.27;;;;;;;4.68;74.73;100997.13;5071950;28;20487;-91
2022/11/19 06:49:04;;;;;;;34.20;18.58;;;;;;;4.73;75.20;101000.56;5069759;28;20039;-90
2022/11/19 06:51:31;;;;;;;35.03;19.13;;;;;;;4.67;75.09;101002.41;5090052;28;20131;-91
2022/11/19 06:53:56;;;;;;;33.92;17.17;;;;;;;4.63;74.32;100993.72;5068699;28;20086;-90
2022/11/19 06:56:21;;;;;;;37.30;19.35;;;;;;;4.59;75.51;101000.72;5064385;28;20032;-91
2022/11/19 06:58:47;;;;;;;39.47;19.90;;;;;;;4.55;75.72;101004.28;5065399;28;20027;-90
2022/11/19 07:01:13;;;;;;;38.83;19.92;;;;;;;4.54;75.49;100996.44;5072794;28;20026;-91
2022/11/19 07:03:39;;;;;;;39.53;19.50;;;;;;;4.46;75.50;101004.38;5072284;28;20540;-91
2022/11/19 07:06:05;;;;;;;39.47;20.33;;;;;;;4.47;75.10;101013.09;5069606;28;20051;-91
2022/11/19 07:08:34;;;;;;;41.80;20.25;;;;;;;4.47;74.44;101026.19;5066256;28;20031;-90
2022/11/19 07:11:00;;;;;;;38.42;19.33;;;;;;;4.40;74.18;101024.56;5089410;28;20163;-90
2022/11/19 07:13:55;;;;;;;36.83;18.70;;;;;;;4.39;74.20;101028.06;5069851;28;20027;-91
2022/11/19 07:16:13;;;;;;;36.30;18.42;;;;;;;4.35;74.63;101022.84;5086913;28;20465;-90
2022/11/19 07:18:39;;;;;;;39.28;20.23;;;;;;;4.38;73.88;101029.78;5072549;28;20036;-91
2022/11/19 07:21:04;;;;;;;42.42;20.35;;;;;;;4.35;74.03;101022.84;5085939;28;20395;-91
2022/11/19 07:23:29;;;;;;;36.72;19.02;;;;;;;4.35;73.81;101027.22;5089965;28;20054;-91
2022/11/19 07:26:01;;;;;;;39.72;19.95;;;;;;;4.26;74.11;101024.72;5072648;28;20027;-91
2022/11/19 07:28:26;;;;;;;43.80;20.77;;;;;;;4.24;73.79;101023.84;5068208;28;20451;-91
2022/11/19 07:30:52;;;;;;;34.92;18.60;;;;;;;4.27;73.73;101035.16;5085641;28;20115;-90
2022/11/19 07:33:17;;;;;;;37.53;19.27;;;;;;;4.28;73.97;101039.50;5068509;28;20024;-91
2022/11/19 07:35:43;;;;;;;42.42;20.38;;;;;;;4.25;74.20;101050.00;5089282;28;20029;-91
2022/11/19 07:38:08;;;;;;;40.15;19.90;;;;;;;4.26;74.03;101041.28;5089591;28;20028;-91
2022/11/19 07:40:33;;;;;;;39.75;19.73;;;;;;;4.26;73.01;101050.88;5068659;28;20038;-91
2022/11/19 07:42:58;;;;;;;40.00;19.30;;;;;;;4.24;74.02;101050.00;5069216;28;20027;-91
2022/11/19 07:45:24;;;;;;;40.63;19.17;;;;;;;4.20;73.37;101050.97;5082696;28;20558;-91
2022/11/19 07:47:49;;;;;;;39.25;19.45;;;;;;;4.23;73.92;101045.66;5089564;28;20081;-91
2022/11/19 07:50:16;;;;;;;38.58;19.00;;;;;;;4.24;73.69;101050.91;5068431;28;20487;-91
2022/11/19 07:52:41;;;;;;;39.70;19.40;;;;;;;4.20;73.53;101051.81;5088051;28;20487;-91
2022/11/19 07:55:07;;;;;;;40.53;20.63;;;;;;;4.31;74.57;101063.03;5069373;28;20078;-91
2022/11/19 07:57:32;;;;;;;40.72;20.77;;;;;;;4.27;72.58;101058.69;5063257;28;20032;-91
2022/11/19 07:59:57;;;;;;;39.63;19.95;;;;;;;4.26;73.83;101069.19;5069030;28;20023;-91
2022/11/19 08:02:23;;;;;;;40.60;19.50;;;;;;;4.31;73.53;101068.25;5065645;28;20129;-91
2022/11/19 08:04:48;;;;;;;39.95;19.48;;;;;;;4.34;73.61;101067.38;5089089;28;20028;-91
2022/11/19 08:07:13;;;;;;;38.20;19.30;;;;;;;4.39;73.72;101067.31;5084544;28;20028;-91
2022/11/19 08:09:39;;;;;;;39.22;17.67;;;;;;;4.38;73.65;101069.03;5069908;28;20032;-90
2022/11/19 08:12:04;;;;;;;40.30;19.17;;;;;;;4.36;74.00;101073.44;5087015;28;20028;-91
2022/11/19 08:14:29;;;;;;;41.45;20.02;;;;;;;4.37;74.13;101083.03;5064501;28;20032;-90
2022/11/19 08:19:39;;;;;;;37.45;19.10;;;;;;;4.32;73.58;101087.44;5087269;28;20062;-91
2022/11/19 08:22:04;;;;;;;38.65;18.35;;;;;;;4.28;73.49;101088.34;5088602;28;20032;-91
2022/11/19 08:24:29;;;;;;;37.40;18.80;;;;;;;4.26;74.00;101093.63;5071366;28;20032;-91
2022/11/19 08:26:54;;;;;;;38.70;19.27;;;;;;;4.27;74.67;101089.25;5088367;28;20038;-91
2022/11/19 08:29:22;;;;;;;41.70;20.13;;;;;;;4.31;73.34;101093.56;5088062;28;20032;-91
2022/11/19 08:31:48;;;;;;;39.72;20.05;;;;;;;4.26;73.09;101092.75;5064096;28;20494;-91
2022/11/19 08:34:15;;;;;;;39.03;20.52;;;;;;;4.33;72.73;101097.03;5068986;28;20028;-91
2022/11/19 08:36:40;;;;;;;38.58;19.60;;;;;;;4.32;72.45;101096.16;5088638;28;20031;-91
2022/11/19 08:39:06;;;;;;;38.88;20.20;;;;;;;4.29;72.89;101090.09;5058709;28;20028;-91
2022/11/19 08:44:16;;;;;;;38.92;18.35;;;;;;;4.33;72.42;101099.63;5085180;28;20452;-91
2022/11/19 08:46:42;;;;;;;36.90;19.45;;;;;;;4.36;72.37;101107.47;5064410;28;20147;-92
2022/11/19 08:49:08;;;;;;;37.38;19.38;;;;;;;4.35;72.40;101104.00;5079350;28;20071;-92
2022/11/19 08:51:33;;;;;;;40.67;19.27;;;;;;;4.36;72.44;101120.56;5069819;28;20127;-91
2022/11/19 08:53:59;;;;;;;35.20;18.27;;;;;;;4.39;72.41;101123.16;5069901;28;20111;-91
2022/11/19 08:56:24;;;;;;;38.10;18.65;;;;;;;4.43;71.84;101116.13;5065747;28;20024;-91
2022/11/19 08:58:51;;;;;;;36.45;18.77;;;;;;;4.41;72.20;101112.66;5085465;28;20032;-90
2022/11/19 09:01:18;;;;;;;34.05;17.60;;;;;;;4.40;70.69;101116.16;5064051;28;20027;-91
2022/11/19 09:03:43;;;;;;;36.28;18.77;;;;;;;4.35;71.45;101106.59;5068625;28;20103;-91
2022/11/19 09:06:09;;;;;;;35.17;18.75;;;;;;;4.38;71.09;101110.06;5063407;28;20538;-91
2022/11/19 09:08:35;;;;;;;38.72;19.70;;;;;;;4.45;71.56;101124.84;5082965;28;20047;-91
2022/11/19 09:11:07;;;;;;;38.95;18.90;;;;;;;4.44;72.08;101129.22;5086225;28;20058;-91
2022/11/19 09:13:33;;;;;;;35.92;18.17;;;;;;;4.32;71.60;101118.84;5064871;28;20043;-91
2022/11/19 09:15:58;;;;;;;33.90;17.83;;;;;;;4.30;71.59;101113.63;5083889;28;20020;-91
2022/11/19 09:18:24;;;;;;;35.60;18.23;;;;;;;4.23;70.87;101104.09;5065477;28;20024;-91
2022/11/19 09:20:56;;;;;;;33.00;17.45;;;;;;;4.29;71.21;101118.88;5081611;28;20051;-91
2022/11/19 09:23:23;;;;;;;33.70;15.82;;;;;;;4.27;71.10;101118.91;5065473;28;20499;-91
2022/11/19 09:26:06;;;;;;;32.42;17.48;;;;;;;4.32;71.83;101117.09;5070116;28;20024;-91
2022/11/19 09:28:32;;;;;;;40.75;17.92;;;;;;;4.39;70.79;101135.38;5059334;28;20028;-91
2022/11/19 09:31:03;;;;;;;37.42;18.27;;;;;;;4.34;70.67;101133.66;5073867;28;20074;-91
2022/11/19 09:33:30;;;;;;;34.85;18.00;;;;;;;4.38;71.25;101129.25;5084160;28;20020;-92
2022/11/19 09:35:55;;;;;;;33.65;18.38;;;;;;;4.40;71.52;101137.97;5092084;28;20110;-91
2022/11/19 09:38:21;;;;;;;31.45;16.88;;;;;;;4.42;71.07;101136.19;5069925;28;20040;-91
2022/11/19 09:40:50;;;;;;;34.88;18.00;;;;;;;4.36;71.11;101136.25;5074956;28;20051;-90
2022/11/19 09:43:42;;;;;;;34.28;17.38;;;;;;;4.45;71.47;101153.63;5052765;28;20025;-90
2022/11/19 09:46:23;;;;;;;34.13;16.73;;;;;;;4.40;70.21;101156.28;5089542;28;20032;-90
2022/11/19 09:48:51;;;;;;;36.00;16.98;;;;;;;4.38;70.67;101159.78;5071210;28;20443;-91
2022/11/19 09:51:22;;;;;;;35.30;17.17;;;;;;;4.34;71.38;101159.84;5071264;28;20016;-91
2022/11/19 09:53:53;;;;;;;34.53;17.40;;;;;;;4.41;70.50;101171.13;5073305;28;20038;-90
2022/11/19 09:56:37;;;;;;;33.75;16.05;;;;;;;4.40;70.98;101171.13;5069800;28;20491;-91
2022/11/19 09:59:12;;;;;;;30.27;16.23;;;;;;;4.45;71.29;101185.03;5089852;28;20028;-91
2022/11/19 10:01:38;;;;;;;33.88;17.23;;;;;;;4.34;70.83;101170.31;5070065;28;20027;-92
2022/11/19 10:04:03;;;;;;;33.65;16.70;;;;;;;4.30;70.64;101178.22;5091397;28;20025;-91
2022/11/19 10:06:42;;;;;;;38.42;17.77;;;;;;;4.25;70.70;101177.38;5069725;28;20093;-91
2022/11/19 10:09:39;;;;;;;36.42;16.65;;;;;;;4.30;70.82;101193.91;5068814;28;20028;-91
2022/11/19 10:12:13;;;;;;;32.22;17.38;;;;;;;4.26;71.54;101190.44;5086602;28;20451;-90
2022/11/19 10:14:56;;;;;;;34.15;16.33;;;;;;;4.33;72.30;101193.88;5071820;28;20024;-92
2022/11/19 10:17:42;;;;;;;35.55;17.92;;;;;;;4.35;71.02;101184.25;5065035;28;20078;-92
2022/11/19 10:20:26;;;;;;;30.73;16.45;;;;;;;4.34;70.78;101188.63;5066368;28;20052;-91
2022/11/19 10:23:13;;;;;;;33.03;16.67;;;;;;;4.28;70.63;101182.56;5079448;28;20062;-91
2022/11/19 10:25:43;;;;;;;32.63;16.00;;;;;;;4.27;70.91;101181.72;5084972;28;20028;-92
2022/11/19 10:28:14;;;;;;;32.17;16.58;;;;;;;4.39;70.90;101192.97;5070281;28;20032;-91
2022/11/19 10:30:45;;;;;;;30.65;15.95;;;;;;;4.36;71.16;101191.22;5086488;28;20032;-92
2022/11/19 10:33:17;;;;;;;31.17;15.90;;;;;;;4.39;70.44;101204.31;5071109;28;20501;-91
2022/11/19 10:35:46;;;;;;;;;;;;;;;4.29;70.04;101200.91;5069618;28;20028;-91
2022/11/19 10:38:20;;;;;;;34.17;16.33;;;;;;;4.12;70.38;101207.16;5072628;28;19938;-90
2022/11/19 10:40:55;;;;;;;31.38;15.93;;;;;;;4.07;69.78;101197.56;5086914;28;20033;-91
2022/11/19 10:43:30;;;;;;;29.15;16.23;;;;;;;4.04;69.76;101201.97;5079476;28;20032;-91
2022/11/19 10:45:58;;;;;;;33.10;17.55;;;;;;;4.12;69.80;101199.28;5061239;28;20028;-91
2022/11/19 10:48:36;;;;;;;30.70;15.82;;;;;;;4.16;69.93;101193.16;5066385;28;20028;-92
2022/11/19 10:51:11;;;;;;;31.40;16.15;;;;;;;4.18;69.33;101191.38;5073698;28;20407;-93
2022/11/19 10:53:38;;;;;;;29.30;15.63;;;;;;;4.19;69.60;101193.97;5069178;28;20043;-94
2022/11/19 10:56:37;;;;;;;32.05;16.55;;;;;;;4.24;70.13;101202.69;5068920;28;20020;-93
2022/11/19 10:59:21;;;;;;;32.50;15.88;;;;;;;4.22;70.06;101196.59;5072929;28;20425;-94
2022/11/19 11:01:50;;;;;;;27.90;14.55;;;;;;;4.31;69.69;101199.13;5071049;28;20525;-92
2022/11/19 11:04:21;;;;;;;26.83;14.88;;;;;;;4.37;70.38;101200.81;5072675;28;20478;-92
2022/11/19 11:06:53;;;;;;;29.05;16.05;;;;;;;4.41;70.53;101206.91;5087120;28;20101;-93
2022/11/19 11:09:42;;;;;;;28.13;13.48;;;;;;;4.51;70.72;101209.41;5072395;28;20093;-94
2022/11/19 11:15:14;;;;;;;29.73;14.25;;;;;;;4.43;69.98;101207.72;5086498;28;20070;-93
2022/11/19 11:17:41;;;;;;;28.23;14.00;;;;;;;4.30;70.10;101184.31;5088179;28;20089;-94
2022/11/19 11:20:15;;;;;;;25.80;13.73;;;;;;;4.33;69.21;101199.97;5090489;28;20038;-92
2022/11/19 11:22:42;;;;;;;27.10;14.07;;;;;;;4.33;69.77;101197.34;5067282;28;20466;-93
2022/11/19 11:25:19;;;;;;;27.65;13.30;;;;;;;4.33;70.40;101204.34;5091519;28;20020;-94
2022/11/19 11:27:44;;;;;;;23.98;12.02;;;;;;;4.27;69.71;101189.56;5073124;28;20453;-93
2022/11/19 11:30:12;;;;;;;22.33;12.35;;;;;;;4.39;68.75;101203.44;5091267;28;20114;-93
2022/11/19 11:32:39;;;;;;;23.67;12.43;;;;;;;4.38;67.96;101197.31;5068807;28;20453;-93
2022/11/19 11:35:05;;;;;;;25.92;12.88;;;;;;;4.33;69.14;101188.63;5064285;28;20074;-91
2022/11/19 11:37:32;;;;;;;22.42;12.60;;;;;;;4.41;69.31;101180.72;5083734;28;20451;-92
2022/11/19 11:39:58;;;;;;;26.77;13.48;;;;;;;4.44;68.48;101184.19;5067592;28;20799;-91
2022/11/19 11:42:25;;;;;;;23.13;13.13;;;;;;;4.49;69.76;101182.38;5089419;28;20467;-91
2022/11/19 11:44:54;;;;;;;23.00;12.50;;;;;;;4.51;68.73;101190.22;5066956;28;20051;-92
2022/11/19 11:47:34;;;;;;;24.27;12.60;;;;;;;4.52;68.80;101191.94;5087170;28;20305;-91
2022/11/19 11:50:02;;;;;;;23.00;12.00;;;;;;;4.63;68.96;101184.88;5082417;28;20109;-91
2022/11/19 11:52:40;;;;;;;22.42;12.55;;;;;;;4.61;69.08;101174.38;5078136;28;20059;-91
2022/11/19 11:55:28;;;;;;;21.50;12.85;;;;;;;4.68;68.23;101188.31;5063218;28;20032;-92